КС Карасульская

СКИДКИ НА СМАРТФОНЫ!

Карта отелей и гостиниц, располагающихся рядом с аэропортом КС Карасульская :

КС Карасульская Тюменская область 56° 19' 0.12" N, 68° 59' 51.72" E
Код аэродрома ИКАО
ZDQ5
Код аэродрома RU
ЗДЯ5
Координаты
N56.31670° E068.99770°
Превышение над уровнем моря
118
Основная полоса
08/26
Курс магнитный
076,4/256,4
Длина основной ВПП
18
Ширина основной ВПП
12
Покрытие основной ВПП
Твёрдое
Освещение ВПП
Нет
Тип: 
Вертодром
Класс аэродрома: 
Принадлежность: 
ГА
Статус: 
Действующий
Сайт: 
E-mail аэродрома: 
Страна: 
Россия
Регион: 
Тюменская область
Город: 
Дополнительная информация: 
Владелец ПП: компрессорная станция-13.

Скидки на навигаторы!

Найти трансфер

С помощью этой формы Вы можете найти трансфер из аэропорта КС Карасульская в город, аэропорт или вокзал:

Погода в аэропортах:

Авиационная погода в аэропорту Имени Алексея Леонова

Регион: 
Погода METAR: 
UNEE 190100Z 12001MPS 3800 BR FEW001 06/06 Q1012 R23/CLRD60 NOSIG RMK QBB050 QFE736
Время наблюдения
2022-08-19T01:00:00Z
Температура C
6.0
Точка росы
6.0
Направление ветра
120
Скорость ветра (узлы)
2
Метео видимость
2.36
Облачность
FEW
Нижняя граница облачности (футы)
100
Явления погоды
BR
Условия полета
IFR
Аэропорт подробнее: 
FEW – незначительная облачность;
BR – дымка (видимость от 1 до 9 км);

Авиационная погода в Емельяново

Регион: 
Погода METAR: 
UNKL 190100Z 25003MPS 9999 -SHRA SCT040CB 10/09 Q1010 R29/110060 NOSIG RMK QFE732
Время наблюдения
2022-08-19T01:00:00Z
Температура C
10.0
Точка росы
9.0
Направление ветра
250
Скорость ветра (узлы)
6
Метео видимость
6.21
Облачность
SCT
Нижняя граница облачности (футы)
4000
Явления погоды
-SHRA
Условия полета
VFR
Аэропорт подробнее: 
SCT – разбросанная отдельная облачность;
-SHRA - слабый ливневой дождь;

Авиационная погода в аэропорту Новый

Регион: 
Погода METAR: 
UHHH 190100Z 22003MPS 160V250 9000 -SHRA SCT003 SCT017CB 20/20 Q0997 R23R/290045 NOSIG RMK QBB100 QFE742/0989
Время наблюдения
2022-08-19T01:00:00Z
Температура C
20.0
Точка росы
20.0
Направление ветра
220
Скорость ветра (узлы)
6
Метео видимость
5.59
Облачность
SCT
SCT
Нижняя граница облачности (футы)
300
1700
Явления погоды
-SHRA
Условия полета
VFR
Аэропорт подробнее: 
SCT – разбросанная отдельная облачность;
-SHRA - слабый ливневой дождь;

Авиационная погода в Липецке

Регион: 
Погода METAR: 
UUOL 190100Z 06008MPS 9999 -RA BKN036 16/15 Q1016 R33/090060 NOSIG
Время наблюдения
2022-08-19T01:00:00Z
Температура C
16.0
Точка росы
15.0
Направление ветра
60
Скорость ветра (узлы)
16
Метео видимость
6.21
Облачность
BKN
Нижняя граница облачности (футы)
3600
Явления погоды
-RA
Условия полета
VFR
Аэропорт подробнее: 
BKN – значительная (рассеянная, разорванная) облачность;
-RA - слабый дождь;